createdAt,value
2022-11-01T00:02:15.868Z,91.92
2022-11-01T00:04:43.761Z,92.04
2022-11-01T00:07:11.561Z,91.85
2022-11-01T00:09:39.378Z,91.61
2022-11-01T00:12:07.152Z,91.68
2022-11-01T00:14:34.940Z,91.82
2022-11-01T00:17:03.231Z,92.12
2022-11-01T00:19:33.821Z,92.18
2022-11-01T00:22:02.385Z,92.11
2022-11-01T00:24:31.707Z,91.70
2022-11-01T00:27:00.230Z,92.24
2022-11-01T00:29:28.084Z,91.55
2022-11-01T00:31:55.878Z,91.72
2022-11-01T00:34:23.719Z,91.72
2022-11-01T00:36:51.467Z,91.67
2022-11-01T00:39:19.309Z,91.86
2022-11-01T00:41:47.281Z,91.57
2022-11-01T00:44:15.045Z,91.70
2022-11-01T00:46:42.840Z,91.56
2022-11-01T00:49:10.661Z,91.79
2022-11-01T00:51:38.438Z,91.56
2022-11-01T00:54:06.415Z,91.80
2022-11-01T00:56:34.281Z,92.58
2022-11-01T00:59:02.205Z,93.08
2022-11-01T01:01:32.609Z,93.39
2022-11-01T01:04:00.719Z,93.38
2022-11-01T01:06:28.478Z,93.49
2022-11-01T01:09:00.520Z,93.44
2022-11-01T01:11:29.117Z,93.21
2022-11-01T01:14:05.624Z,93.37
2022-11-01T01:16:36.206Z,93.32
2022-11-01T01:19:04.385Z,93.26
2022-11-01T01:21:38.173Z,92.95
2022-11-01T01:24:06.286Z,92.59
2022-11-01T01:26:34.013Z,92.51
2022-11-01T01:29:01.862Z,92.77
2022-11-01T01:31:29.828Z,92.67
2022-11-01T01:33:58.591Z,92.39
2022-11-01T01:36:26.300Z,92.27
2022-11-01T01:38:54.092Z,92.23
2022-11-01T01:41:40.602Z,92.23
2022-11-01T01:44:46.584Z,91.96
2022-11-01T01:47:28.188Z,91.77
2022-11-01T01:50:22.300Z,92.23
2022-11-01T01:53:01.820Z,91.72
2022-11-01T01:55:41.776Z,91.82
2022-11-01T01:58:12.069Z,92.08
2022-11-01T02:00:42.832Z,92.10
2022-11-01T02:03:12.539Z,92.40
2022-11-01T02:05:54.073Z,92.57
2022-11-01T02:08:28.105Z,92.36
2022-11-01T02:11:05.827Z,92.39
2022-11-01T02:13:34.045Z,92.94
2022-11-01T02:16:01.663Z,92.62
2022-11-01T02:18:39.999Z,92.51
2022-11-01T02:21:30.732Z,92.59
2022-11-01T02:24:23.282Z,92.41
2022-11-01T02:27:00.425Z,92.51
2022-11-01T02:29:51.037Z,92.42
2022-11-01T02:32:40.782Z,92.39
2022-11-01T02:35:22.932Z,92.52
2022-11-01T02:37:53.597Z,92.56
2022-11-01T02:40:29.247Z,92.60
2022-11-01T02:43:02.903Z,92.49
2022-11-01T02:45:41.399Z,92.91
2022-11-01T02:48:09.272Z,92.47
2022-11-01T02:50:45.656Z,92.11
2022-11-01T02:53:13.863Z,92.26
2022-11-01T02:55:41.783Z,92.07
2022-11-01T02:58:20.064Z,91.75
2022-11-01T03:00:47.962Z,91.75
2022-11-01T03:03:17.792Z,91.61
2022-11-01T03:05:48.587Z,91.82
2022-11-01T03:08:25.866Z,91.79
2022-11-01T03:11:02.872Z,91.81
2022-11-01T03:14:20.201Z,91.81
2022-11-01T03:17:00.550Z,91.72
2022-11-01T03:19:52.566Z,91.80
2022-11-01T03:22:28.813Z,91.54
2022-11-01T03:25:31.804Z,92.30
2022-11-01T03:28:04.565Z,92.47
2022-11-01T03:30:34.442Z,93.02
2022-11-01T03:33:02.477Z,93.00
2022-11-01T03:35:40.553Z,92.99
2022-11-01T03:38:13.809Z,93.30
2022-11-01T03:40:47.144Z,93.54
2022-11-01T03:43:17.698Z,93.22
2022-11-01T03:45:45.699Z,93.03
2022-11-01T03:48:13.464Z,93.20
2022-11-01T03:50:47.478Z,92.95
2022-11-01T03:53:15.920Z,92.69
2022-11-01T03:55:44.366Z,92.30
2022-11-01T03:58:12.160Z,92.09
2022-11-01T04:00:42.872Z,92.18
2022-11-01T04:03:12.118Z,91.88
2022-11-01T04:05:41.594Z,91.81
2022-11-01T04:08:11.553Z,91.61
2022-11-01T04:10:39.380Z,91.55
2022-11-01T04:13:07.081Z,91.44
2022-11-01T04:15:53.684Z,91.54
2022-11-01T04:18:42.464Z,91.69
2022-11-01T04:21:14.489Z,91.46
2022-11-01T04:23:43.803Z,91.44
2022-11-01T04:26:17.701Z,91.30
2022-11-01T04:28:57.291Z,91.46
2022-11-01T04:31:34.079Z,91.36
2022-11-01T04:34:03.763Z,91.44
2022-11-01T04:36:31.824Z,91.21
2022-11-01T04:38:59.871Z,91.03
2022-11-01T04:41:29.418Z,90.71
2022-11-01T04:43:59.232Z,90.82
2022-11-01T04:46:31.554Z,90.79
2022-11-01T04:48:59.369Z,90.95
2022-11-01T04:51:27.232Z,91.06
2022-11-01T04:53:55.054Z,91.28
2022-11-01T04:56:22.865Z,91.26
2022-11-01T04:58:50.705Z,91.55
2022-11-01T05:01:18.599Z,91.70
2022-11-01T05:03:48.720Z,91.69
2022-11-01T05:06:16.528Z,91.77
2022-11-01T05:08:44.495Z,91.55
2022-11-01T05:11:12.400Z,91.19
2022-11-01T05:13:40.180Z,91.16
2022-11-01T05:16:19.286Z,91.00
2022-11-01T05:18:48.438Z,91.01
2022-11-01T05:21:16.453Z,90.88
2022-11-01T05:23:44.264Z,90.73
2022-11-01T05:26:11.953Z,91.08
2022-11-01T05:28:39.763Z,91.90
2022-11-01T05:31:07.718Z,91.35
2022-11-01T05:33:35.477Z,91.31
2022-11-01T05:36:03.459Z,91.07
2022-11-01T05:38:31.260Z,90.82
2022-11-01T05:41:02.684Z,90.73
2022-11-01T05:43:30.693Z,90.83
2022-11-01T05:45:58.556Z,90.95
2022-11-01T05:48:26.392Z,91.01
2022-11-01T05:50:54.224Z,90.88
2022-11-01T05:53:22.950Z,90.69
2022-11-01T05:55:51.111Z,90.79
2022-11-01T05:58:18.810Z,91.00
2022-11-01T06:00:46.555Z,90.87
2022-11-01T06:03:14.404Z,91.15
2022-11-01T06:05:42.096Z,90.83
2022-11-01T06:08:09.841Z,90.75
2022-11-01T06:10:37.633Z,90.65
2022-11-01T06:13:05.742Z,90.15
2022-11-01T06:15:37.120Z,90.06
2022-11-01T06:18:08.185Z,89.77
2022-11-01T06:20:39.310Z,89.30
2022-11-01T06:23:11.468Z,88.76
2022-11-01T06:25:39.178Z,88.68
2022-11-01T06:28:06.961Z,88.64
2022-11-01T06:30:34.755Z,88.62
2022-11-01T06:33:02.932Z,88.52
2022-11-01T06:35:30.893Z,87.97
2022-11-01T06:38:09.371Z,87.67
2022-11-01T06:40:37.781Z,87.67
2022-11-01T06:43:06.355Z,87.67
2022-11-01T06:45:34.333Z,87.81
2022-11-01T06:48:02.415Z,87.86
2022-11-01T06:50:30.705Z,88.34
2022-11-01T06:52:59.749Z,88.42
2022-11-01T06:55:28.928Z,88.52
2022-11-01T06:57:59.645Z,88.34
2022-11-01T07:00:29.137Z,87.89
2022-11-01T07:03:01.970Z,86.97
2022-11-01T07:05:32.864Z,86.62
2022-11-01T07:08:06.277Z,86.53
2022-11-01T07:10:34.362Z,86.08
2022-11-01T07:13:03.819Z,85.41
2022-11-01T07:15:32.118Z,85.00
2022-11-01T07:18:02.543Z,85.02
2022-11-01T07:20:32.312Z,85.07
2022-11-01T07:23:05.739Z,84.30
2022-11-01T07:25:33.803Z,84.56
2022-11-01T07:28:01.770Z,84.63
2022-11-01T07:30:29.483Z,84.21
2022-11-01T07:32:59.506Z,84.33
2022-11-01T07:35:27.683Z,84.44
2022-11-01T07:38:01.991Z,84.33
2022-11-01T07:40:32.740Z,83.82
2022-11-01T07:43:01.268Z,83.51
2022-11-01T07:45:31.343Z,83.40
2022-11-01T07:48:02.695Z,83.46
2022-11-01T07:50:32.553Z,83.99
2022-11-01T07:53:05.853Z,83.39
2022-11-01T07:55:35.285Z,82.89
2022-11-01T07:58:03.983Z,82.81
2022-11-01T08:03:07.114Z,82.43
2022-11-01T08:05:35.887Z,81.84
2022-11-01T08:08:04.880Z,81.53
2022-11-01T08:10:34.185Z,80.00
2022-11-01T08:13:09.021Z,80.36
2022-11-01T08:15:36.768Z,80.20
2022-11-01T08:18:04.971Z,79.76
2022-11-01T08:20:33.191Z,78.93
2022-11-01T08:23:01.161Z,78.66
2022-11-01T08:25:29.578Z,79.14
2022-11-01T08:28:22.805Z,78.97
2022-11-01T08:30:50.990Z,78.25
2022-11-01T08:33:18.645Z,77.57
2022-11-01T08:35:50.455Z,77.17
2022-11-01T08:38:19.389Z,75.29
2022-11-01T08:40:48.194Z,76.47
2022-11-01T08:43:16.991Z,76.02
2022-11-01T08:45:44.942Z,75.45
2022-11-01T08:48:13.350Z,74.46
2022-11-01T08:50:41.117Z,74.25
2022-11-01T08:53:14.130Z,74.25
2022-11-01T08:55:42.166Z,74.14
2022-11-01T08:58:10.185Z,74.03
2022-11-01T09:00:38.023Z,73.45
2022-11-01T09:03:05.958Z,73.92
2022-11-01T09:05:34.595Z,73.32
2022-11-01T09:08:03.164Z,73.31
2022-11-01T09:10:31.345Z,73.18
2022-11-01T09:13:00.723Z,72.90
2022-11-01T09:15:29.070Z,71.75
2022-11-01T09:17:56.913Z,72.24
2022-11-01T09:20:24.750Z,71.72
2022-11-01T09:22:52.785Z,71.16
2022-11-01T09:25:20.709Z,71.43
2022-11-01T09:27:58.022Z,70.80
2022-11-01T09:30:26.258Z,71.00
2022-11-01T09:32:54.128Z,70.37
2022-11-01T09:35:24.023Z,70.35
2022-11-01T09:38:00.516Z,70.40
2022-11-01T09:40:33.081Z,70.64
2022-11-01T09:43:02.097Z,70.85
2022-11-01T09:45:35.511Z,70.25
2022-11-01T09:48:05.821Z,70.00
2022-11-01T09:50:37.783Z,69.51
2022-11-01T09:53:14.422Z,70.14
2022-11-01T09:55:51.657Z,70.09
2022-11-01T09:58:42.286Z,70.12
2022-11-01T10:01:31.658Z,69.31
2022-11-01T10:04:25.100Z,69.22
2022-11-01T10:07:15.948Z,69.03
2022-11-01T10:10:04.951Z,69.29
2022-11-01T10:12:59.549Z,69.43
2022-11-01T10:15:51.491Z,68.87
2022-11-01T10:18:29.683Z,68.68
2022-11-01T10:21:00.908Z,68.72
2022-11-01T10:23:40.601Z,68.32
2022-11-01T10:26:13.956Z,68.40
2022-11-01T10:28:49.635Z,68.52
2022-11-01T10:31:22.379Z,68.59
2022-11-01T10:34:02.615Z,67.65
2022-11-01T10:36:39.197Z,66.61
2022-11-01T10:39:58.948Z,67.28
2022-11-01T10:42:30.074Z,66.34
2022-11-01T10:45:08.881Z,66.16
2022-11-01T10:47:36.782Z,65.79
2022-11-01T10:50:08.199Z,66.50
2022-11-01T10:53:04.192Z,66.35
2022-11-01T10:55:41.617Z,66.70
2022-11-01T10:58:21.634Z,66.98
2022-11-01T11:00:50.631Z,67.05
2022-11-01T11:03:26.255Z,66.99
2022-11-01T11:05:56.616Z,66.99
2022-11-01T11:08:25.394Z,66.95
2022-11-01T11:10:53.349Z,67.71
2022-11-01T11:13:24.432Z,67.55
2022-11-01T11:16:02.373Z,67.59
2022-11-01T11:18:39.126Z,66.88
2022-11-01T11:21:09.904Z,66.33
2022-11-01T11:23:44.325Z,65.98
2022-11-01T11:26:19.701Z,66.91
2022-11-01T11:28:54.930Z,67.09
2022-11-01T11:31:28.787Z,66.91
2022-11-01T11:34:27.374Z,66.07
2022-11-01T11:37:00.789Z,65.22
2022-11-01T11:39:35.851Z,65.89
2022-11-01T11:42:24.613Z,65.91
2022-11-01T11:45:14.661Z,65.59
2022-11-01T11:47:43.106Z,66.02
2022-11-01T11:50:32.561Z,64.74
2022-11-01T11:53:03.777Z,64.43
2022-11-01T11:55:35.954Z,65.03
2022-11-01T11:58:06.202Z,64.64
2022-11-01T12:00:38.133Z,64.95
2022-11-01T12:03:08.152Z,64.19
2022-11-01T12:05:35.867Z,64.41
2022-11-01T12:08:04.793Z,64.65
2022-11-01T12:10:32.540Z,64.66
2022-11-01T12:13:02.814Z,64.56
2022-11-01T12:15:41.139Z,64.72
2022-11-01T12:18:16.540Z,64.23
2022-11-01T12:20:50.873Z,64.65
2022-11-01T12:23:28.845Z,64.10
2022-11-01T12:26:01.773Z,64.16
2022-11-01T12:28:55.299Z,64.02
2022-11-01T12:31:25.478Z,64.43
2022-11-01T12:34:06.592Z,64.08
2022-11-01T12:36:43.828Z,64.41
2022-11-01T12:39:40.447Z,63.54
2022-11-01T12:42:12.236Z,64.02
2022-11-01T12:44:48.303Z,64.13
2022-11-01T12:47:44.368Z,64.56
2022-11-01T12:50:20.228Z,64.17
2022-11-01T12:52:58.725Z,64.23
2022-11-01T12:55:39.696Z,64.17
2022-11-01T12:58:28.937Z,63.82
2022-11-01T13:01:40.161Z,63.59
2022-11-01T13:04:31.646Z,64.33
2022-11-01T13:07:25.107Z,64.83
2022-11-01T13:10:03.160Z,65.75
2022-11-01T13:12:44.078Z,66.45
2022-11-01T13:15:29.563Z,67.20
2022-11-01T13:18:16.228Z,67.45
2022-11-01T13:20:54.586Z,68.02
2022-11-01T13:23:57.735Z,67.67
2022-11-01T13:26:54.890Z,68.15
2022-11-01T13:29:38.423Z,68.38
2022-11-01T13:32:21.496Z,68.61
2022-11-01T13:35:17.523Z,68.59
2022-11-01T13:37:58.477Z,68.57
2022-11-01T13:40:37.347Z,68.88
2022-11-01T13:43:17.047Z,69.16
2022-11-01T13:46:07.819Z,69.75
2022-11-01T13:49:06.043Z,69.90
2022-11-01T13:52:02.657Z,70.03
2022-11-01T13:54:35.678Z,70.35
2022-11-01T13:57:15.934Z,70.67
2022-11-01T14:00:06.946Z,71.12
2022-11-01T14:02:49.452Z,71.50
2022-11-01T14:05:17.227Z,71.58
2022-11-01T14:07:44.801Z,71.60
2022-11-01T14:10:19.103Z,71.80
2022-11-01T14:13:05.658Z,72.31
2022-11-01T14:16:19.598Z,72.22
2022-11-01T14:19:02.856Z,72.84
2022-11-01T14:21:51.683Z,72.67
2022-11-01T14:24:29.463Z,72.87
2022-11-01T14:27:20.295Z,73.15
2022-11-01T14:29:52.507Z,74.06
2022-11-01T14:32:23.425Z,74.34
2022-11-01T14:35:25.390Z,74.52
2022-11-01T14:37:57.265Z,74.35
2022-11-01T14:40:41.590Z,74.43
2022-11-01T14:43:27.994Z,75.06
2022-11-01T14:46:04.201Z,75.37
2022-11-01T14:49:20.072Z,75.75
2022-11-01T14:51:56.759Z,75.22
2022-11-01T14:54:56.349Z,75.79
2022-11-01T14:57:29.479Z,76.73
2022-11-01T14:59:58.622Z,76.77
2022-11-01T15:02:28.409Z,77.01
2022-11-01T15:05:00.904Z,76.46
2022-11-01T15:07:35.649Z,76.46
2022-11-01T15:10:09.705Z,76.69
2022-11-01T15:12:47.904Z,76.91
2022-11-01T15:15:24.784Z,77.49
2022-11-01T15:17:58.551Z,77.34
2022-11-01T15:20:31.993Z,77.48
2022-11-01T15:22:59.893Z,77.21
2022-11-01T15:25:27.897Z,77.09
2022-11-01T15:27:57.245Z,77.83
2022-11-01T15:30:30.667Z,78.24
2022-11-01T15:33:25.990Z,78.52
2022-11-01T15:35:59.643Z,78.77
2022-11-01T15:38:28.816Z,79.15
2022-11-01T15:40:56.794Z,78.72
2022-11-01T15:43:29.895Z,79.07
2022-11-01T15:46:01.196Z,79.50
2022-11-01T15:48:38.230Z,80.54
2022-11-01T15:51:09.416Z,80.80
2022-11-01T15:53:38.919Z,81.06
2022-11-01T15:56:18.145Z,81.72
2022-11-01T15:58:48.765Z,81.70
2022-11-01T16:01:22.184Z,81.90
2022-11-01T16:04:01.762Z,81.88
2022-11-01T16:06:52.936Z,81.45
2022-11-01T16:09:45.696Z,82.14
2022-11-01T16:12:27.754Z,81.66
2022-11-01T16:14:57.350Z,81.47
2022-11-01T16:17:33.696Z,81.15
2022-11-01T16:20:05.116Z,81.31
2022-11-01T16:22:38.087Z,81.40
2022-11-01T16:25:13.109Z,81.31
2022-11-01T16:28:07.568Z,80.98
2022-11-01T16:30:53.311Z,80.82
2022-11-01T16:33:36.714Z,80.89
2022-11-01T16:36:35.793Z,81.26
2022-11-01T16:39:31.416Z,81.57
2022-11-01T16:42:00.287Z,81.58
2022-11-01T16:44:28.262Z,81.22
2022-11-01T16:46:56.301Z,81.06
2022-11-01T16:49:27.995Z,80.94
2022-11-01T16:51:59.018Z,81.05
2022-11-01T16:54:27.492Z,81.78
2022-11-01T16:56:58.635Z,82.79
2022-11-01T16:59:38.707Z,82.98
2022-11-01T17:02:20.216Z,82.64
2022-11-01T17:04:52.168Z,83.17
2022-11-01T17:07:21.057Z,83.08
2022-11-01T17:09:49.018Z,83.02
2022-11-01T17:12:16.943Z,83.05
2022-11-01T17:14:46.355Z,83.08
2022-11-01T17:17:17.815Z,83.20
2022-11-01T17:19:50.412Z,82.85
2022-11-01T17:22:21.585Z,82.94
2022-11-01T17:24:50.166Z,83.03
2022-11-01T17:27:19.312Z,82.88
2022-11-01T17:29:47.749Z,82.80
2022-11-01T17:32:17.208Z,82.80
2022-11-01T17:34:46.036Z,82.64
2022-11-01T17:37:17.590Z,82.61
2022-11-01T17:39:46.467Z,82.43
2022-11-01T17:42:14.572Z,82.46
2022-11-01T17:45:02.920Z,82.63
2022-11-01T17:47:31.263Z,82.87
2022-11-01T17:49:59.223Z,83.00
2022-11-01T17:52:27.477Z,83.00
2022-11-01T17:54:57.121Z,83.01
2022-11-01T17:57:26.567Z,83.18
2022-11-01T17:59:55.020Z,83.71
2022-11-01T18:02:24.966Z,84.62
2022-11-01T18:04:54.969Z,85.24
2022-11-01T18:07:23.410Z,85.47
2022-11-01T18:09:51.822Z,85.36
2022-11-01T18:12:33.554Z,84.76
2022-11-01T18:15:34.631Z,85.11
2022-11-01T18:18:26.601Z,85.68
2022-11-01T18:21:22.880Z,85.09
2022-11-01T18:23:52.334Z,84.96
2022-11-01T18:26:26.330Z,84.49
2022-11-01T18:28:59.100Z,84.56
2022-11-01T18:31:42.866Z,85.16
2022-11-01T18:34:55.920Z,86.06
2022-11-01T18:37:23.731Z,85.32
2022-11-01T18:40:08.816Z,85.16
2022-11-01T18:42:37.427Z,84.78
2022-11-01T18:45:30.382Z,85.23
2022-11-01T18:48:31.284Z,85.07
2022-11-01T18:51:06.113Z,85.09
2022-11-01T18:53:34.711Z,85.18
2022-11-01T18:56:19.189Z,85.89
2022-11-01T18:58:47.148Z,85.12
2022-11-01T19:01:24.138Z,85.09
2022-11-01T19:04:10.432Z,85.15
2022-11-01T19:06:38.232Z,85.31
2022-11-01T19:09:24.158Z,85.21
2022-11-01T19:12:11.565Z,85.03
2022-11-01T19:14:40.283Z,84.58
2022-11-01T19:17:29.703Z,84.56
2022-11-01T19:19:59.788Z,84.71
2022-11-01T19:22:38.930Z,84.65
2022-11-01T19:25:21.552Z,84.46
2022-11-01T19:27:52.910Z,84.33
2022-11-01T19:30:25.030Z,84.14
2022-11-01T19:32:55.223Z,84.14
2022-11-01T19:35:23.222Z,84.33
2022-11-01T19:37:54.686Z,84.66
2022-11-01T19:40:31.305Z,84.92
2022-11-01T19:43:20.475Z,84.98
2022-11-01T19:45:53.692Z,84.84
2022-11-01T19:48:28.679Z,84.52
2022-11-01T19:50:56.468Z,84.57
2022-11-01T19:53:36.453Z,85.06
2022-11-01T19:56:06.842Z,85.36
2022-11-01T19:58:45.754Z,85.70
2022-11-01T20:01:16.746Z,85.83
2022-11-01T20:03:47.837Z,85.77
2022-11-01T20:06:17.010Z,85.89
2022-11-01T20:08:47.507Z,86.05
2022-11-01T20:11:15.251Z,85.89
2022-11-01T20:13:42.962Z,86.02
2022-11-01T20:16:10.753Z,86.32
2022-11-01T20:18:38.423Z,86.27
2022-11-01T20:21:06.596Z,86.38
2022-11-01T20:23:34.631Z,85.89
2022-11-01T20:26:06.786Z,85.43
2022-11-01T20:28:34.621Z,85.54
2022-11-01T20:31:02.304Z,85.56
2022-11-01T20:33:30.022Z,85.49
2022-11-01T20:35:58.524Z,85.46
2022-11-01T20:38:26.353Z,85.18
2022-11-01T20:40:54.084Z,85.19
2022-11-01T20:43:21.850Z,85.20
2022-11-01T20:45:49.797Z,85.27
2022-11-01T20:48:18.483Z,85.36
2022-11-01T20:50:46.498Z,85.34
2022-11-01T20:53:15.095Z,85.16
2022-11-01T20:55:43.128Z,85.42
2022-11-01T20:58:11.913Z,85.86
2022-11-01T21:00:39.929Z,85.93
2022-11-01T21:03:16.503Z,85.78
2022-11-01T21:05:46.565Z,85.87
2022-11-01T21:08:22.610Z,85.85
2022-11-01T21:11:03.413Z,85.65
2022-11-01T21:13:42.110Z,85.37
2022-11-01T21:16:20.157Z,85.18
2022-11-01T21:18:50.357Z,85.24
2022-11-01T21:21:17.957Z,85.53
2022-11-01T21:23:46.552Z,85.49
2022-11-01T21:26:23.502Z,85.44
2022-11-01T21:28:54.654Z,85.29
2022-11-01T21:31:37.901Z,85.10
2022-11-01T21:34:12.207Z,84.99
2022-11-01T21:36:41.204Z,85.12
2022-11-01T21:39:16.837Z,85.33
2022-11-01T21:41:52.406Z,85.44
2022-11-01T21:44:41.827Z,85.58
2022-11-01T21:47:10.413Z,85.27
2022-11-01T21:49:38.749Z,85.07
2022-11-01T21:52:08.705Z,84.91
2022-11-01T21:54:38.294Z,84.95
2022-11-01T21:57:08.367Z,85.19
2022-11-01T21:59:36.725Z,85.28
2022-11-01T22:02:06.412Z,85.24
2022-11-01T22:04:34.173Z,85.13
2022-11-01T22:07:04.753Z,85.09
2022-11-01T22:09:33.234Z,84.90
2022-11-01T22:12:01.486Z,85.08
2022-11-01T22:14:29.227Z,85.25
2022-11-01T22:16:57.052Z,85.25
2022-11-01T22:19:24.814Z,85.57
2022-11-01T22:21:52.651Z,85.53
2022-11-01T22:24:20.504Z,85.27
2022-11-01T22:26:48.282Z,85.17
2022-11-01T22:29:16.019Z,84.98
2022-11-01T22:31:43.753Z,85.08
2022-11-01T22:34:11.594Z,85.42
2022-11-01T22:36:42.318Z,85.65
2022-11-01T22:39:18.367Z,85.80
2022-11-01T22:41:46.107Z,85.72
2022-11-01T22:44:17.372Z,85.53
2022-11-01T22:46:57.886Z,85.47
2022-11-01T22:49:28.713Z,85.50
2022-11-01T22:52:02.176Z,85.56
2022-11-01T22:54:47.580Z,85.38
2022-11-01T22:57:16.678Z,85.38
2022-11-01T22:59:50.499Z,85.25
2022-11-01T23:02:29.234Z,85.18
2022-11-01T23:05:06.314Z,85.29
2022-11-01T23:07:39.320Z,85.36
2022-11-01T23:10:33.762Z,85.46
2022-11-01T23:13:31.238Z,85.34
2022-11-01T23:16:11.614Z,85.23
2022-11-01T23:18:42.725Z,85.03
2022-11-01T23:21:10.451Z,85.10
2022-11-01T23:23:42.175Z,85.26
2022-11-01T23:26:11.661Z,85.42
2022-11-01T23:28:48.932Z,85.76
2022-11-01T23:31:17.461Z,85.57
2022-11-01T23:33:46.968Z,85.36
2022-11-01T23:36:23.154Z,85.15
2022-11-01T23:41:38.087Z,85.17
2022-11-01T23:44:30.267Z,85.31
2022-11-01T23:47:04.473Z,85.59
2022-11-01T23:49:34.678Z,85.44
2022-11-01T23:52:23.975Z,85.42
2022-11-01T23:54:51.625Z,85.19
2022-11-01T23:57:21.560Z,85.11
2022-11-01T23:59:51.086Z,85.10
